Dream Angel — 3EEV — position and weather

sailwx.info

Track history (hours):
 
Tides and Currents Weather Stations Pressure Air Temp Water Temp Dewpoint Dewpoint Depression Visibility Wind Speed Wind Dir Waves Ship Positions

Dream Angel

Last reported at 2015-Sep-04 03:12 UTC. Time now 2015-Sep-05 16:20 UTC.
Position N 29°51' E 122°12'.

Length 187 m; draft 6 m.

Type: Cargo ship. MMSI: 371820000.

Date/timePositionNaut miles runAvg speedWind from/ knotsBaromVisibWave heightAir tempDewpointWater temp
2015-Sep-04 03:12N 29°51' E 122°12'811.0
2015-Sep-04 02:28N 29°45' E 122°19'  
2015-Aug-29 05:33N 01°16' E 104°14'1615.9
2015-Aug-29 04:34N 01°14' E 103°58'1514.8
2015-Aug-29 03:34N 01°07' E 103°45'11515.9
2015-Aug-28 20:21N 02°02' E 102°05'2715.0
2015-Aug-28 18:33N 02°19' E 101°44'2814.1
2015-Aug-28 16:33N 02°36' E 101°21'2814.1
2015-Aug-28 14:33N 02°50' E 100°57'4314.2
2015-Aug-28 11:33N 03°18' E 100°24'4615.3
2015-Aug-28 08:32N 03°47' E 099°48'3415.0
2015-Aug-28 06:17N 04°15' E 099°29'  
Track history (hours):
 
Tides and Currents Weather Stations Pressure Air Temp Water Temp Dewpoint Dewpoint Depression Visibility Wind Speed Wind Dir Waves Ship Positions

Dream Angel

Last reported at 2015-Sep-04 03:12 UTC. Time now 2015-Sep-05 16:20 UTC.
Position N 29°51' E 122°12'.

Length 187 m; draft 6 m.

Type: Cargo ship. MMSI: 371820000.

Date/timePositionNaut miles runAvg speedWind from/ knotsBaromVisibWave heightAir tempDewpointWater temp
2015-Sep-04 03:12N 29°51' E 122°12'811.0
2015-Sep-04 02:28N 29°45' E 122°19'  
2015-Aug-29 05:33N 01°16' E 104°14'1615.9
2015-Aug-29 04:34N 01°14' E 103°58'1514.8
2015-Aug-29 03:34N 01°07' E 103°45'11515.9
2015-Aug-28 20:21N 02°02' E 102°05'2715.0
2015-Aug-28 18:33N 02°19' E 101°44'2814.1
2015-Aug-28 16:33N 02°36' E 101°21'2814.1
2015-Aug-28 14:33N 02°50' E 100°57'4314.2
2015-Aug-28 11:33N 03°18' E 100°24'4615.3
2015-Aug-28 08:32N 03°47' E 099°48'3415.0
2015-Aug-28 06:17N 04°15' E 099°29'  

Dump ship's entire track history